Time;durP1;ratioP1;P1;durP2;ratioP2;P2;SDS_P1;SDS_P2;PMS_P1;PMS_P2;Temp;Humidity;BMP_temperature;BMP_pressure;BME280_temperature;BME280_humidity;BME280_pressure;Samples;Min_cycle;Max_cycle;Signal;HPM_P1;HPM_P2
2021/09/16 03:31:46;;;;;;;4.10;2.23;;;;;;;22.59;64.07;98538.38;7759000;23;20238;-80
2021/09/16 03:35:08;;;;;;;2.77;2.33;;;;;;;22.88;63.95;98522.72;6927868;28;20211;-81
2021/09/16 03:38:30;;;;;;;3.13;2.20;;;;;;;23.02;63.30;98536.59;6931647;28;20211;-80
2021/09/16 03:41:52;;;;;;;2.20;2.00;;;;;;;22.83;63.28;98542.00;6937456;28;20230;-80
2021/09/16 03:45:13;;;;;;;5.83;2.33;;;;;;;22.92;63.72;98553.19;6929435;28;20674;-79
2021/09/16 03:48:36;;;;;;;4.57;2.47;;;;;;;23.08;62.83;98540.94;6917847;28;20351;-79
2021/09/16 03:51:58;;;;;;;3.20;2.57;;;;;;;22.87;63.91;98534.00;6918666;28;20234;-79
2021/09/16 03:55:19;;;;;;;3.13;2.50;;;;;;;23.04;63.30;98542.63;6893897;28;20205;-80
2021/09/16 03:58:41;;;;;;;3.23;2.60;;;;;;;23.03;63.32;98551.97;6890500;28;20240;-79
2021/09/16 04:02:03;;;;;;;4.67;2.70;;;;;;;22.80;63.40;98520.59;6891318;28;20232;-80
2021/09/16 04:05:26;;;;;;;3.13;2.30;;;;;;;22.93;62.69;98554.81;6890991;28;20213;-79
2021/09/16 04:08:48;;;;;;;4.27;2.70;;;;;;;23.02;62.53;98542.91;6890346;28;20252;-79
2021/09/16 04:12:10;;;;;;;3.43;2.67;;;;;;;22.69;63.62;98543.81;6890867;28;20237;-79
2021/09/16 04:15:31;;;;;;;2.77;2.50;;;;;;;22.99;63.35;98553.66;6890538;28;20209;-79
2021/09/16 04:18:53;;;;;;;3.20;2.63;;;;;;;23.18;62.81;98560.13;6865963;28;20565;-79
2021/09/16 04:22:16;;;;;;;3.30;2.43;;;;;;;22.59;64.05;98554.88;6863744;28;20316;-79
2021/09/16 04:25:38;;;;;;;2.73;2.20;;;;;;;22.69;64.39;98541.06;6863517;28;20865;-79
2021/09/16 04:29:01;;;;;;;2.60;2.40;;;;;;;22.80;64.19;98545.34;6862983;28;20259;-79
2021/09/16 04:32:23;;;;;;;3.67;2.70;;;;;;;22.85;63.69;98533.47;6861782;28;20271;-79
2021/09/16 04:35:44;;;;;;;2.93;2.43;;;;;;;22.76;63.92;98560.78;6862977;28;20243;-81
2021/09/16 04:39:07;;;;;;;4.13;2.53;;;;;;;22.97;63.61;98544.91;6862769;28;20229;-79
2021/09/16 04:42:29;;;;;;;2.97;2.67;;;;;;;22.94;63.76;98557.28;6862634;28;20230;-79
2021/09/16 04:45:51;;;;;;;4.37;2.50;;;;;;;23.06;62.73;98562.41;6864660;28;20352;-79
2021/09/16 04:49:12;;;;;;;5.10;2.63;;;;;;;22.44;64.00;98555.03;6889367;28;20299;-79
2021/09/16 04:52:34;;;;;;;3.67;2.80;;;;;;;22.50;64.12;98555.78;6889155;28;20233;-79
2021/09/16 04:55:57;;;;;;;4.20;2.40;;;;;;;22.44;63.19;98546.78;6884906;28;20226;-80
2021/09/16 04:59:18;;;;;;;3.50;2.70;;;;;;;22.56;63.77;98554.63;6862204;28;20678;-79
2021/09/16 05:02:40;;;;;;;4.10;2.70;;;;;;;22.84;63.01;98571.13;6862372;28;20223;-81
2021/09/16 05:06:02;;;;;;;3.57;2.50;;;;;;;22.89;62.78;98557.34;6863676;28;20224;-79
2021/09/16 05:09:23;;;;;;;3.00;2.67;;;;;;;22.94;63.04;98570.22;6862209;28;20237;-79
2021/09/16 05:12:46;;;;;;;2.60;2.40;;;;;;;22.58;64.11;98561.50;6862100;28;20691;-79
2021/09/16 05:16:08;;;;;;;3.53;2.73;;;;;;;22.14;64.75;98568.13;6866292;28;20313;-79
2021/09/16 05:19:29;;;;;;;3.50;2.63;;;;;;;22.76;63.77;98563.53;6860525;28;20658;-79
2021/09/16 05:22:51;;;;;;;3.93;2.70;;;;;;;22.63;63.11;98560.63;6861448;28;20243;-79
2021/09/16 05:26:13;;;;;;;2.50;2.30;;;;;;;22.85;63.12;98577.47;6861419;28;20696;-79
2021/09/16 05:29:35;;;;;;;2.83;2.40;;;;;;;22.94;63.24;98570.22;6861179;28;20240;-79
2021/09/16 05:32:57;;;;;;;3.97;2.70;;;;;;;23.08;62.13;98569.25;6865463;28;20245;-80
2021/09/16 05:36:19;;;;;;;4.63;3.03;;;;;;;22.73;63.30;98569.59;6870824;28;20591;-81
2021/09/16 05:39:40;;;;;;;3.63;2.80;;;;;;;22.60;64.37;98563.97;6864311;28;20211;-79
2021/09/16 05:43:02;;;;;;;5.13;2.83;;;;;;;22.62;64.07;98562.56;6861217;28;20229;-79
2021/09/16 05:46:25;;;;;;;3.73;3.10;;;;;;;22.78;64.20;98564.03;6861350;28;20309;-79
2021/09/16 05:49:47;;;;;;;3.37;2.70;;;;;;;23.02;63.69;98584.16;6866800;28;20253;-79
2021/09/16 05:53:09;;;;;;;3.47;2.93;;;;;;;22.79;63.83;98582.19;6871995;28;20224;-79
2021/09/16 05:56:31;;;;;;;2.90;2.60;;;;;;;22.52;63.82;98589.28;6884283;28;20279;-78
2021/09/16 05:59:53;;;;;;;3.60;2.97;;;;;;;22.09;65.32;98593.69;6860755;28;20208;-78
2021/09/16 06:03:16;;;;;;;3.30;3.00;;;;;;;21.96;67.23;98599.00;6861427;28;20716;-79
2021/09/16 06:06:37;;;;;;;3.47;3.00;;;;;;;22.45;65.95;98597.88;6861264;28;20216;-78
2021/09/16 06:09:59;;;;;;;2.83;2.57;;;;;;;22.91;64.28;98592.81;6883407;28;20235;-79
2021/09/16 06:13:20;;;;;;;5.33;2.80;;;;;;;23.09;64.32;98584.66;6884157;28;20227;-79
2021/09/16 06:16:42;;;;;;;5.67;3.37;;;;;;;23.27;63.76;98591.38;6879523;28;20202;-78
2021/09/16 06:20:06;;;;;;;3.03;2.73;;;;;;;23.26;63.47;98595.22;6870550;28;20201;-78
2021/09/16 06:23:28;;;;;;;3.43;2.93;;;;;;;23.17;63.18;98597.78;6860818;28;20237;-78
2021/09/16 06:26:50;;;;;;;4.07;2.97;;;;;;;22.96;63.38;98595.50;6860706;28;20223;-78
2021/09/16 06:30:12;;;;;;;3.37;2.70;;;;;;;22.76;64.30;98595.69;6861797;28;20232;-78
2021/09/16 06:33:34;;;;;;;4.27;2.87;;;;;;;22.94;64.07;98589.47;6895701;28;20212;-80
2021/09/16 06:36:57;;;;;;;2.70;2.50;;;;;;;23.10;62.93;98597.28;6923284;28;20548;-79
2021/09/16 06:40:19;;;;;;;3.27;2.97;;;;;;;23.12;63.95;98600.56;6913713;28;20204;-78
2021/09/16 06:43:41;;;;;;;4.00;2.70;;;;;;;23.08;64.18;98590.44;6892604;28;20215;-78
2021/09/16 06:47:03;;;;;;;3.10;2.80;;;;;;;23.33;63.04;98595.69;6872885;28;20235;-78
2021/09/16 06:50:24;;;;;;;3.40;2.60;;;;;;;23.38;62.96;98599.22;6876738;28;20224;-78
2021/09/16 06:53:47;;;;;;;3.27;2.97;;;;;;;23.13;63.44;98595.91;6886728;28;20241;-79
2021/09/16 06:57:09;;;;;;;3.27;2.80;;;;;;;23.12;64.20;98605.25;6891186;28;20250;-78
2021/09/16 07:00:31;;;;;;;6.47;3.13;;;;;;;23.37;62.76;98589.31;6891550;28;20211;-78
2021/09/16 07:03:53;;;;;;;4.80;3.17;;;;;;;23.35;63.08;98605.31;6888977;28;20611;-79
2021/09/16 07:07:14;;;;;;;4.10;2.93;;;;;;;23.36;63.13;98606.13;6878094;28;20205;-79
2021/09/16 07:10:37;;;;;;;5.37;3.20;;;;;;;23.42;63.36;98614.03;6891522;28;20232;-78
2021/09/16 07:13:59;;;;;;;4.43;3.00;;;;;;;23.49;62.66;98597.16;6892403;28;20208;-78
2021/09/16 07:17:21;;;;;;;3.27;2.97;;;;;;;23.66;62.54;98608.53;6880757;28;20251;-79
2021/09/16 07:20:42;;;;;;;4.97;2.70;;;;;;;23.51;63.08;98616.94;6881156;28;20220;-78
2021/09/16 07:24:04;;;;;;;4.20;2.90;;;;;;;23.71;62.34;98622.25;6867326;28;20199;-78
2021/09/16 07:27:27;;;;;;;5.77;3.13;;;;;;;23.55;63.05;98629.81;6865177;28;20263;-78
2021/09/16 07:30:49;;;;;;;3.20;2.90;;;;;;;23.19;63.74;98625.81;6864301;28;20280;-78
2021/09/16 07:34:11;;;;;;;3.10;2.80;;;;;;;23.24;63.71;98625.78;6864261;28;20198;-78
2021/09/16 07:37:32;;;;;;;3.77;3.30;;;;;;;23.17;64.47;98629.97;6865872;28;20210;-78
2021/09/16 07:40:54;;;;;;;4.47;2.97;;;;;;;23.58;63.32;98633.94;6865018;28;20226;-79
2021/09/16 07:44:17;;;;;;;3.67;3.20;;;;;;;23.77;62.82;98634.81;6890287;28;20662;-79
2021/09/16 07:47:39;;;;;;;3.07;2.67;;;;;;;23.82;63.06;98641.06;6892136;28;20235;-80
2021/09/16 07:51:01;;;;;;;5.50;2.93;;;;;;;23.96;61.36;98643.97;6892296;28;20282;-81
2021/09/16 07:54:22;;;;;;;3.17;2.63;;;;;;;23.74;62.35;98650.00;6877469;28;20220;-80
2021/09/16 07:57:44;;;;;;;3.40;3.00;;;;;;;23.29;63.80;98657.91;6866387;28;20218;-79
2021/09/16 08:01:07;;;;;;;5.13;3.27;;;;;;;23.38;63.90;98648.75;6865809;28;20229;-80
2021/09/16 08:04:28;;;;;;;3.70;3.30;;;;;;;23.56;63.40;98664.53;6866858;28;20217;-81
2021/09/16 08:07:50;;;;;;;6.03;3.90;;;;;;;23.50;63.73;98654.69;6866776;28;20211;-79
2021/09/16 08:11:12;;;;;;;8.17;4.57;;;;;;;23.34;64.11;98658.69;6864802;28;20726;-80
2021/09/16 08:14:33;;;;;;;9.53;5.00;;;;;;;23.24;65.13;98660.75;6872509;28;20222;-80
2021/09/16 08:17:58;;;;;;;5.37;4.70;;;;;;;23.12;66.32;98669.31;6873667;28;20207;-80
2021/09/16 08:21:20;;;;;;;7.53;4.20;;;;;;;23.14;65.96;98664.34;6884541;28;20603;-80
2021/09/16 08:24:42;;;;;;;6.77;3.87;;;;;;;23.15;66.50;98670.69;6897888;28;20224;-80
2021/09/16 08:28:03;;;;;;;5.73;4.47;;;;;;;23.35;66.37;98676.84;6896274;28;20209;-80
2021/09/16 08:31:25;;;;;;;6.13;4.50;;;;;;;23.37;65.98;98668.31;6886474;28;20616;-80
2021/09/16 08:34:48;;;;;;;6.83;4.73;;;;;;;23.12;66.88;98677.56;6885565;28;20208;-79
2021/09/16 08:38:10;;;;;;;8.57;7.33;;;;;;;22.79;67.81;98689.41;6878246;28;20220;-79
2021/09/16 08:41:33;;;;;;;14.70;9.33;;;;;;;22.82;67.47;98696.25;6878020;28;20222;-81
2021/09/16 08:44:56;;;;;;;15.03;10.93;;;;;;;23.09;66.52;98682.84;6866552;28;20205;-79
2021/09/16 08:48:17;;;;;;;14.40;10.87;;;;;;;23.05;65.94;98701.84;6873704;28;20317;-79
2021/09/16 08:51:41;;;;;;;13.70;11.07;;;;;;;23.05;65.75;98707.34;6888627;28;20260;-79
2021/09/16 08:55:04;;;;;;;13.83;11.23;;;;;;;22.93;66.70;98704.16;6886604;28;20206;-79
2021/09/16 08:58:27;;;;;;;12.27;10.03;;;;;;;22.58;66.79;98709.91;6888915;28;20207;-79
2021/09/16 09:01:48;;;;;;;12.17;8.53;;;;;;;21.84;68.69;98703.63;6888509;28;20282;-78
2021/09/16 09:05:11;;;;;;;9.13;8.10;;;;;;;22.42;67.86;98713.78;6880021;28;20696;-80
2021/09/16 09:08:34;;;;;;;8.77;7.60;;;;;;;22.69;66.95;98714.22;6897913;28;20224;-79
2021/09/16 09:11:59;;;;;;;8.07;7.27;;;;;;;22.78;66.16;98719.94;6896627;28;20227;-80
2021/09/16 09:15:21;;;;;;;7.17;5.80;;;;;;;22.84;66.21;98718.78;6894078;28;20683;-79
2021/09/16 09:18:45;;;;;;;8.50;6.60;;;;;;;23.15;65.07;98725.69;6885833;28;20201;-80
2021/09/16 09:22:07;;;;;;;5.23;4.73;;;;;;;23.33;63.87;98725.84;6888887;28;20236;-79
2021/09/16 09:25:30;;;;;;;5.87;5.30;;;;;;;23.27;64.89;98727.00;6888724;28;20657;-79
2021/09/16 09:28:54;;;;;;;4.40;4.00;;;;;;;22.92;65.31;98729.19;6888236;28;20214;-80
2021/09/16 09:32:16;;;;;;;4.13;3.73;;;;;;;23.12;64.09;98734.53;6872995;28;20618;-81
2021/09/16 09:35:39;;;;;;;5.17;4.50;;;;;;;22.58;65.81;98731.03;6906669;28;20352;-79
2021/09/16 09:39:02;;;;;;;5.47;4.97;;;;;;;22.70;64.62;98735.09;6885994;28;20219;-79
2021/09/16 09:42:28;;;;;;;6.90;6.20;;;;;;;22.74;64.95;98736.19;6878104;28;20312;-80
2021/09/16 09:46:04;;;;;;;8.40;7.60;;;;;;;23.06;63.86;98741.19;6875129;28;20210;-78
2021/09/16 09:49:26;;;;;;;6.83;6.23;;;;;;;22.60;64.65;98717.88;6867792;28;20536;-79
2021/09/16 09:52:48;;;;;;;8.93;8.13;;;;;;;22.60;64.55;98737.91;6887620;28;20695;-77
2021/09/16 09:56:15;;;;;;;9.30;8.50;;;;;;;22.79;64.74;98747.16;6889106;28;20259;-80
2021/09/16 10:00:00;;;;;;;7.87;7.27;;;;;;;22.81;63.54;98741.34;6886890;28;20210;-85
2021/09/16 10:03:27;;;;;;;6.90;6.20;;;;;;;22.85;63.67;98742.44;6880065;28;20306;-85
2021/09/16 10:06:49;;;;;;;6.43;5.93;;;;;;;22.87;63.20;98721.78;6890198;28;20260;-85
2021/09/16 10:10:11;;;;;;;7.90;7.20;;;;;;;22.68;63.69;98720.84;6889204;28;20216;-83
2021/09/16 10:13:34;;;;;;;8.13;7.33;;;;;;;22.54;64.56;98755.53;6889460;28;20218;-83
2021/09/16 10:16:57;;;;;;;7.63;6.93;;;;;;;22.40;64.54;98746.25;6867071;28;20678;-83
2021/09/16 10:23:49;;;;;;;8.17;7.37;;;;;;;21.77;63.87;98670.16;6956729;23;20249;-93
2021/09/16 10:27:28;;;;;;;8.30;7.47;;;;;;;21.56;62.48;98589.00;6906261;28;20207;-93
2021/09/16 10:30:50;;;;;;;10.10;9.10;;;;;;;22.18;63.14;98659.84;6918095;28;20227;-94
2021/09/16 10:34:43;;;;;;;9.57;8.67;;;;;;;22.02;62.94;98707.69;6887743;28;20201;-93
2021/09/16 10:38:21;;;;;;;13.13;10.67;;;;;;;22.51;62.54;98758.03;6863420;28;20216;-92
2021/09/16 10:41:45;;;;;;;22.17;18.27;;;;;;;21.94;62.50;98634.97;6864041;28;20210;-92
2021/09/16 10:45:08;;;;;;;9.27;8.27;;;;;;;22.14;62.99;98728.22;6863745;28;20698;-91
2021/09/16 10:48:33;;;;;;;10.53;9.47;;;;;;;22.05;62.85;98685.16;6863571;28;20671;-92
2021/09/16 10:51:58;;;;;;;12.70;11.40;;;;;;;22.09;62.30;98683.50;6870827;28;20216;-92
2021/09/16 10:55:39;;;;;;;19.63;17.97;;;;;;;22.13;63.43;98723.81;6891147;28;20219;-91
2021/09/16 10:59:17;;;;;;;13.00;11.77;;;;;;;22.44;62.30;98699.81;6888961;28;20348;-91
2021/09/16 11:03:13;;;;;;;10.70;9.57;;;;;;;22.05;62.88;98691.47;6884769;28;20194;-91
2021/09/16 11:06:43;;;;;;;12.30;11.03;;;;;;;22.37;63.26;98719.31;6868250;28;20726;-91
2021/09/16 11:10:38;;;;;;;13.47;12.07;;;;;;;21.80;62.78;98688.84;6864040;28;20311;-91
2021/09/16 11:14:01;;;;;;;11.73;10.57;;;;;;;21.90;62.12;98738.19;6864582;28;20233;-91
2021/09/16 11:17:28;;;;;;;17.13;12.73;;;;;;;22.04;62.43;98799.66;6864621;28;20208;-91
2021/09/16 11:20:54;;;;;;;12.80;11.60;;;;;;;20.83;63.57;98697.69;6863534;28;20222;-91
2021/09/16 11:24:16;;;;;;;15.83;12.97;;;;;;;21.01;62.97;98670.59;6864579;28;20558;-91
2021/09/16 11:27:40;;;;;;;15.03;12.97;;;;;;;21.12;63.90;98762.72;6880845;28;20202;-92
2021/09/16 11:31:04;;;;;;;15.87;13.23;;;;;;;20.08;64.37;98597.06;6891832;28;20233;-92
2021/09/16 11:34:31;;;;;;;16.37;12.90;;;;;;;21.50;63.78;98798.63;6892235;28;20353;-92
2021/09/16 11:37:56;;;;;;;19.03;15.17;;;;;;;21.29;63.48;98702.91;6891222;28;20672;-92
2021/09/16 11:41:19;;;;;;;17.20;15.27;;;;;;;21.13;63.91;98701.28;6891989;28;20219;-93
2021/09/16 11:45:09;;;;;;;19.33;14.93;;;;;;;21.74;63.80;98794.25;6895598;28;20223;-93
2021/09/16 11:48:32;;;;;;;16.70;14.87;;;;;;;21.47;63.59;98738.81;6882284;28;20215;-93
2021/09/16 11:51:54;;;;;;;14.93;12.83;;;;;;;21.36;62.42;98741.84;6895774;28;20695;-92
2021/09/16 11:55:17;;;;;;;15.80;14.07;;;;;;;21.92;63.32;98796.41;6895687;28;20298;-94
2021/09/16 11:58:39;;;;;;;15.27;11.97;;;;;;;21.48;62.29;98729.47;6894673;28;20681;-94
2021/09/16 12:02:02;;;;;;;15.07;13.43;;;;;;;21.33;62.84;98705.94;6889452;28;20215;-93
2021/09/16 12:10:06;;;;;;;15.73;14.03;;;;;;;22.37;61.84;98795.44;6919428;28;20636;-92
2021/09/16 12:13:30;;;;;;;18.33;14.23;;;;;;;21.18;62.23;98658.22;6930316;28;20232;-92
2021/09/16 12:17:02;;;;;;;22.57;16.93;;;;;;;22.04;61.77;98771.38;6932196;28;20200;-93
2021/09/16 12:20:41;;;;;;;16.90;14.67;;;;;;;22.10;61.86;98743.63;6911303;28;20212;-91
2021/09/16 12:24:06;;;;;;;15.03;13.50;;;;;;;21.95;61.87;98688.75;6920523;28;20209;-90
2021/09/16 12:27:29;;;;;;;15.47;13.87;;;;;;;22.16;61.64;98733.44;6905906;28;20210;-90
2021/09/16 12:30:51;;;;;;;17.73;14.30;;;;;;;22.26;60.95;98742.47;6866415;28;20210;-90
2021/09/16 12:34:16;;;;;;;16.40;12.97;;;;;;;22.24;61.67;98779.56;6866092;28;20202;-91
2021/09/16 12:37:41;;;;;;;15.30;13.70;;;;;;;22.18;61.01;98739.50;6866210;28;20252;-90
2021/09/16 12:41:21;;;;;;;15.60;13.53;;;;;;;22.25;61.41;98754.53;6891595;28;20214;-90
2021/09/16 12:44:45;;;;;;;16.10;13.07;;;;;;;21.65;59.58;98592.00;6893086;28;20542;-90
2021/09/16 12:48:14;;;;;;;13.60;12.10;;;;;;;22.49;58.40;98754.75;6892873;28;20212;-90
2021/09/16 12:51:36;;;;;;;14.23;12.57;;;;;;;22.40;59.09;98716.00;6892975;28;20230;-89
2021/09/16 12:55:01;;;;;;;15.83;12.47;;;;;;;22.30;60.06;98710.56;6891658;28;20570;-91
2021/09/16 12:58:36;;;;;;;16.13;13.30;;;;;;;22.72;59.00;98743.06;6891907;28;20220;-91
2021/09/16 13:02:26;;;;;;;15.03;12.77;;;;;;;22.51;59.39;98708.56;6887374;28;20209;-91
2021/09/16 13:06:08;;;;;;;14.97;12.83;;;;;;;22.47;58.63;98737.69;6891549;28;20223;-90
2021/09/16 13:09:30;;;;;;;12.87;10.97;;;;;;;22.35;59.00;98709.72;6890769;28;20216;-90
2021/09/16 13:12:54;;;;;;;13.40;12.00;;;;;;;21.83;58.15;98597.69;6890760;28;20229;-90
2021/09/16 13:16:16;;;;;;;12.83;11.10;;;;;;;22.57;58.29;98782.47;6890956;28;20239;-90
2021/09/16 13:19:39;;;;;;;13.63;12.17;;;;;;;21.63;59.59;98649.06;6890980;28;20648;-90
2021/09/16 13:23:01;;;;;;;16.90;12.77;;;;;;;22.86;58.64;98758.66;6890644;28;20209;-90
2021/09/16 13:26:28;;;;;;;16.70;12.83;;;;;;;22.83;57.79;98755.66;6883140;28;20724;-90
2021/09/16 13:29:50;;;;;;;14.10;12.03;;;;;;;22.44;57.74;98677.84;6891481;28;20212;-90
2021/09/16 13:33:11;;;;;;;15.47;13.17;;;;;;;22.69;57.43;98688.66;6891227;28;20238;-90
2021/09/16 13:36:35;;;;;;;18.10;13.80;;;;;;;22.58;57.65;98720.88;6891447;28;20683;-90
2021/09/16 13:39:57;;;;;;;18.07;13.10;;;;;;;22.23;57.31;98657.88;6890821;28;20212;-90
2021/09/16 13:43:19;;;;;;;17.30;14.67;;;;;;;21.63;59.08;98624.34;6891274;28;20208;-90
2021/09/16 13:46:40;;;;;;;16.50;12.53;;;;;;;21.99;59.38;98710.97;6890916;28;20237;-89
2021/09/16 13:50:09;;;;;;;18.03;13.17;;;;;;;22.17;58.60;98694.72;6889266;28;20205;-89
2021/09/16 13:53:32;;;;;;;17.47;14.37;;;;;;;21.97;58.83;98693.97;6889149;28;20239;-89
2021/09/16 13:56:54;;;;;;;16.23;13.97;;;;;;;21.39;59.18;98686.44;6889370;28;20665;-90
2021/09/16 14:00:17;;;;;;;15.93;13.47;;;;;;;21.77;58.69;98686.63;6888750;28;20203;-90
2021/09/16 14:03:39;;;;;;;16.10;14.43;;;;;;;22.26;57.87;98758.97;6888640;28;20220;-90
2021/09/16 14:07:00;;;;;;;15.43;12.87;;;;;;;22.10;58.66;98694.19;6889428;28;20228;-90
2021/09/16 14:10:24;;;;;;;16.03;14.23;;;;;;;21.91;58.76;98618.22;6888478;28;20208;-90
2021/09/16 14:13:45;;;;;;;16.17;13.77;;;;;;;22.87;57.20;98727.28;6888961;28;20233;-90
2021/09/16 14:17:07;;;;;;;15.70;14.00;;;;;;;22.80;57.57;98715.81;6888827;28;20300;-90
2021/09/16 14:20:31;;;;;;;14.63;13.13;;;;;;;22.96;56.62;98656.81;6888280;28;20216;-89
2021/09/16 14:23:53;;;;;;;14.43;13.07;;;;;;;22.69;55.83;98614.44;6888722;28;20273;-90
2021/09/16 14:27:17;;;;;;;15.37;13.90;;;;;;;22.57;56.83;98671.69;6888816;28;20209;-90
2021/09/16 14:30:41;;;;;;;17.53;14.40;;;;;;;22.47;58.01;98719.31;6870738;28;20210;-90
2021/09/16 14:34:03;;;;;;;14.10;12.70;;;;;;;23.34;57.09;98746.75;6888259;28;20603;-89
2021/09/16 14:37:25;;;;;;;15.20;13.47;;;;;;;22.76;56.90;98667.16;6888372;28;20215;-89
2021/09/16 14:40:48;;;;;;;14.97;13.43;;;;;;;22.85;57.05;98703.94;6887486;28;20570;-89
2021/09/16 14:44:12;;;;;;;14.83;13.40;;;;;;;23.14;55.92;98755.13;6888479;28;20208;-89
2021/09/16 14:47:34;;;;;;;16.43;12.67;;;;;;;23.30;56.66;98748.44;6887966;28;20224;-89
2021/09/16 14:50:56;;;;;;;14.63;13.13;;;;;;;22.88;55.78;98648.34;6887659;28;20215;-89
2021/09/16 14:54:17;;;;;;;15.10;13.43;;;;;;;23.52;55.65;98757.03;6888175;28;20701;-90
2021/09/16 14:57:39;;;;;;;13.77;12.50;;;;;;;23.05;55.45;98734.84;6888367;28;20560;-89
2021/09/16 15:01:03;;;;;;;17.67;13.50;;;;;;;23.14;55.41;98671.78;6887090;28;20618;-89
2021/09/16 15:04:24;;;;;;;15.43;12.80;;;;;;;22.95;54.77;98676.38;6888265;28;20217;-89
2021/09/16 15:07:49;;;;;;;14.77;13.27;;;;;;;23.44;54.49;98715.56;6883152;28;20203;-89
2021/09/16 15:11:11;;;;;;;15.93;13.17;;;;;;;23.03;55.09;98711.50;6888999;28;20333;-89
2021/09/16 15:14:33;;;;;;;14.20;12.80;;;;;;;23.29;55.10;98734.94;6889287;28;20232;-89
2021/09/16 15:17:58;;;;;;;13.67;12.37;;;;;;;22.10;54.92;98558.81;6891548;28;20215;-89
2021/09/16 15:21:19;;;;;;;13.37;12.10;;;;;;;23.14;55.13;98711.09;6892544;28;20214;-89
2021/09/16 15:24:41;;;;;;;13.43;12.10;;;;;;;22.70;54.47;98627.91;6893470;28;20232;-89
2021/09/16 15:28:08;;;;;;;14.07;11.30;;;;;;;22.74;55.14;98744.44;6888148;28;20219;-90
2021/09/16 15:31:31;;;;;;;13.87;10.80;;;;;;;21.54;55.37;98579.41;6895018;28;20223;-89
2021/09/16 15:34:54;;;;;;;13.40;10.57;;;;;;;21.91;54.65;98631.97;6894287;28;20225;-89
2021/09/16 15:38:16;;;;;;;11.77;10.57;;;;;;;22.44;54.99;98713.56;6898057;28;20215;-88
2021/09/16 15:41:38;;;;;;;11.87;10.67;;;;;;;21.81;55.75;98608.13;6899675;28;20204;-89
2021/09/16 15:45:00;;;;;;;13.73;11.00;;;;;;;21.85;54.97;98556.22;6898867;28;20196;-89
2021/09/16 15:48:28;;;;;;;12.60;11.40;;;;;;;22.59;54.18;98650.25;6896291;28;20273;-89
2021/09/16 15:51:52;;;;;;;12.50;10.67;;;;;;;22.68;54.67;98652.13;6893761;28;20607;-89
2021/09/16 15:55:14;;;;;;;11.50;10.30;;;;;;;22.38;54.36;98616.59;6892629;28;20243;-88
2021/09/16 15:58:36;;;;;;;11.50;10.27;;;;;;;22.33;54.74;98622.09;6891728;28;20201;-89
2021/09/16 16:01:58;;;;;;;11.40;10.20;;;;;;;22.24;54.56;98610.06;6892294;28;20254;-89
2021/09/16 16:05:22;;;;;;;11.63;10.10;;;;;;;22.46;54.11;98716.81;6898924;28;20223;-89
2021/09/16 16:08:47;;;;;;;10.43;9.40;;;;;;;23.28;54.25;98761.66;6891635;28;20247;-89
2021/09/16 16:12:09;;;;;;;11.40;10.30;;;;;;;22.92;53.47;98693.44;6891705;28;20267;-89
2021/09/16 16:15:31;;;;;;;10.93;8.40;;;;;;;22.74;52.97;98711.44;6891741;28;20228;-89
2021/09/16 16:18:56;;;;;;;10.03;8.87;;;;;;;22.50;52.81;98629.97;6873968;28;20232;-88
2021/09/16 16:22:18;;;;;;;9.10;8.20;;;;;;;23.10;52.29;98748.56;6865637;28;20221;-88
2021/09/16 16:25:41;;;;;;;9.70;8.63;;;;;;;23.67;51.93;98809.19;6865927;28;20284;-89
2021/09/16 16:29:03;;;;;;;11.37;7.90;;;;;;;22.78;52.28;98674.00;6864968;28;20683;-88
2021/09/16 16:32:26;;;;;;;8.23;7.53;;;;;;;23.05;51.44;98728.53;6865296;28;20231;-88
2021/09/16 16:35:53;;;;;;;7.30;6.60;;;;;;;23.15;52.42;98765.03;6873016;28;20225;-89
2021/09/16 16:39:31;;;;;;;9.70;6.97;;;;;;;22.65;51.70;98674.66;6892540;28;20284;-89
2021/09/16 16:42:56;;;;;;;6.80;6.20;;;;;;;23.08;51.68;98715.00;6891900;28;20217;-89
2021/09/16 16:47:08;;;;;;;7.23;6.53;;;;;;;22.35;51.14;98636.38;6890676;28;20672;-89
2021/09/16 17:00:22;;;;;;;6.47;5.67;;;;;;;21.96;51.10;98648.41;6860222;28;20291;-89
2021/09/16 17:04:13;;;;;;;6.10;5.53;;;;;;;21.69;50.79;98670.75;6852689;28;20198;-89
2021/09/16 17:11:26;;;;;;;5.77;5.27;;;;;;;23.08;49.21;98813.22;6885855;28;20689;-89
2021/09/16 17:14:50;;;;;;;6.30;5.70;;;;;;;22.43;50.75;98723.72;6890106;28;20715;-89
2021/09/16 17:18:15;;;;;;;6.43;5.37;;;;;;;22.64;50.59;98769.22;6889839;28;20662;-89
2021/09/16 17:21:38;;;;;;;6.43;5.47;;;;;;;22.00;50.04;98682.41;6883465;28;20578;-89
2021/09/16 17:25:03;;;;;;;5.73;5.00;;;;;;;22.25;50.26;98735.31;6889905;28;20581;-89
2021/09/16 17:28:25;;;;;;;6.37;5.77;;;;;;;22.61;50.63;98837.69;6889899;28;20684;-88
2021/09/16 17:31:51;;;;;;;6.20;5.00;;;;;;;22.30;50.98;98786.69;6884580;28;20205;-89
2021/09/16 17:35:14;;;;;;;6.77;5.63;;;;;;;22.75;50.44;98817.53;6863574;28;20703;-89
2021/09/16 17:38:44;;;;;;;5.97;5.20;;;;;;;21.54;50.96;98697.38;6868524;28;20293;-89
2021/09/16 17:47:25;;;;;;;5.20;4.67;;;;;;;22.37;50.72;98815.47;6858534;28;20251;-89
2021/09/16 17:52:01;;;;;;;6.67;4.10;;;;;;;21.53;49.31;98638.94;6860797;28;20686;-88
2021/09/16 18:04:25;;;;;;;4.37;3.97;;;;;;;22.23;50.60;98825.41;6879958;28;20266;-82
2021/09/16 18:12:41;;;;;;;7.07;3.80;;;;;;;21.57;50.77;98744.28;6885291;28;20233;-81
2021/09/16 18:25:39;;;;;;;3.93;3.13;;;;;;;22.41;50.42;98855.03;6676681;29;20330;-82
2021/09/16 18:29:41;;;;;;;5.17;4.20;;;;;;;22.22;50.52;98809.22;6695601;29;20228;-83
2021/09/16 18:37:50;;;;;;;6.00;4.13;;;;;;;21.08;51.58;98704.81;6650601;29;20210;-82
2021/09/16 18:41:21;;;;;;;5.33;4.00;;;;;;;21.78;52.77;98835.69;6657673;29;20229;-82
2021/09/16 18:44:51;;;;;;;5.90;4.47;;;;;;;20.73;54.28;98790.81;6653920;29;20257;-82
2021/09/16 18:48:14;;;;;;;4.67;4.17;;;;;;;21.07;55.12;98841.38;6667629;29;20323;-81
2021/09/16 18:51:37;;;;;;;6.17;5.00;;;;;;;21.83;53.84;98888.66;6748185;29;20650;-82
2021/09/16 18:55:09;;;;;;;5.87;4.63;;;;;;;21.71;54.42;98903.75;6759979;29;20351;-82
2021/09/16 18:58:31;;;;;;;4.77;4.27;;;;;;;21.68;55.12;98905.13;6777952;29;20211;-82
2021/09/16 19:02:03;;;;;;;5.33;4.83;;;;;;;21.70;54.43;98910.31;6774483;29;20262;-81
2021/09/16 19:05:25;;;;;;;7.53;5.00;;;;;;;21.53;55.05;98876.84;6757148;29;20227;-82
2021/09/16 19:09:00;;;;;;;5.67;5.10;;;;;;;20.84;55.30;98777.69;6752355;29;20208;-82
2021/09/16 19:12:21;;;;;;;6.37;5.10;;;;;;;21.21;56.56;98873.50;6770624;28;20314;-82
2021/09/16 19:15:55;;;;;;;6.53;6.03;;;;;;;20.07;57.44;98731.47;6885453;28;20246;-82
2021/09/16 19:19:36;;;;;;;6.83;5.80;;;;;;;20.77;59.95;98935.28;6886030;28;20220;-82
2021/09/16 19:23:09;;;;;;;6.53;5.93;;;;;;;20.11;60.64;98845.63;6886691;28;20228;-82
2021/09/16 19:30:38;;;;;;;8.00;6.20;;;;;;;20.17;58.98;98792.53;6884864;28;20588;-82
2021/09/16 19:34:11;;;;;;;7.93;5.90;;;;;;;20.90;58.35;98870.94;6888103;28;20236;-81
2021/09/16 19:41:45;;;;;;;7.57;5.90;;;;;;;20.16;59.53;98822.94;6878598;28;20252;-81
2021/09/16 19:45:16;;;;;;;7.00;6.30;;;;;;;19.43;59.91;98735.44;6862250;28;20233;-82
2021/09/16 19:48:58;;;;;;;12.07;8.50;;;;;;;19.78;60.55;98804.91;6887715;28;20201;-82
2021/09/16 19:52:46;;;;;;;8.67;5.80;;;;;;;19.63;59.67;98773.88;6888906;28;20308;-83
2021/09/16 19:56:36;;;;;;;6.37;5.30;;;;;;;20.16;58.87;98850.31;6885201;28;20296;-81
2021/09/16 20:00:26;;;;;;;7.87;6.20;;;;;;;20.24;59.92;98896.38;6866911;28;20721;-82
2021/09/16 20:16:24;;;;;;;8.47;6.20;;;;;;;18.89;60.63;98721.06;6881518;28;20374;-82
2021/09/16 20:19:54;;;;;;;7.57;6.17;;;;;;;19.95;60.80;98895.88;6891935;28;20216;-82
2021/09/16 20:23:16;;;;;;;9.23;6.67;;;;;;;19.57;60.40;98841.41;6868570;28;20233;-81
2021/09/16 20:26:38;;;;;;;7.83;5.70;;;;;;;19.97;60.37;98893.69;6868271;28;20220;-81
2021/09/16 20:30:01;;;;;;;8.20;6.17;;;;;;;19.93;60.15;98899.97;6868512;28;20252;-82
2021/09/16 20:33:23;;;;;;;7.97;6.70;;;;;;;19.31;60.92;98896.13;6868560;28;20233;-81
2021/09/16 20:36:44;;;;;;;8.47;6.87;;;;;;;19.48;60.93;98892.22;6891924;28;20614;-82
2021/09/16 20:40:07;;;;;;;10.53;7.17;;;;;;;19.33;60.47;98891.25;6896691;28;20665;-82
2021/09/16 20:43:29;;;;;;;6.93;6.33;;;;;;;19.34;60.06;98884.69;6897161;28;20226;-82